sensor_id;sensor_type;location;lat;lon;timestamp;temperature;humidity
70170;DHT22;57543;45.442;9.212;2023-03-16T00:02:53;13.87;37.38
70170;DHT22;57543;45.442;9.212;2023-03-16T00:05:57;13.87;37.28
70170;DHT22;57543;45.442;9.212;2023-03-16T00:09:01;13.80;37.14
70170;DHT22;57543;45.442;9.212;2023-03-16T00:12:07;13.79;37.01
70170;DHT22;57543;45.442;9.212;2023-03-16T00:15:18;13.76;36.74
70170;DHT22;57543;45.442;9.212;2023-03-16T00:18:23;13.73;36.53
70170;DHT22;57543;45.442;9.212;2023-03-16T00:21:29;13.62;36.40
70170;DHT22;57543;45.442;9.212;2023-03-16T00:24:34;13.59;36.53
70170;DHT22;57543;45.442;9.212;2023-03-16T00:27:37;13.56;36.42
70170;DHT22;57543;45.442;9.212;2023-03-16T00:30:41;13.45;36.42
70170;DHT22;57543;45.442;9.212;2023-03-16T00:33:52;13.32;36.90
70170;DHT22;57543;45.442;9.212;2023-03-16T00:36:57;13.24;36.99
70170;DHT22;57543;45.442;9.212;2023-03-16T00:40:00;13.28;36.89
70170;DHT22;57543;45.442;9.212;2023-03-16T00:43:05;13.36;36.73
70170;DHT22;57543;45.442;9.212;2023-03-16T00:46:12;13.35;36.56
70170;DHT22;57543;45.442;9.212;2023-03-16T00:49:16;13.38;36.53
70170;DHT22;57543;45.442;9.212;2023-03-16T00:52:20;13.44;36.41
70170;DHT22;57543;45.442;9.212;2023-03-16T00:55:25;13.36;36.25
70170;DHT22;57543;45.442;9.212;2023-03-16T00:58:33;13.25;36.18
70170;DHT22;57543;45.442;9.212;2023-03-16T01:01:38;13.18;36.11
70170;DHT22;57543;45.442;9.212;2023-03-16T01:04:41;13.01;35.39
70170;DHT22;57543;45.442;9.212;2023-03-16T01:07:45;12.84;35.74
70170;DHT22;57543;45.442;9.212;2023-03-16T01:10:49;12.91;35.62
70170;DHT22;57543;45.442;9.212;2023-03-16T01:13:53;12.97;35.35
70170;DHT22;57543;45.442;9.212;2023-03-16T01:16:56;13.03;34.90
70170;DHT22;57543;45.442;9.212;2023-03-16T01:20:00;12.87;34.32
70170;DHT22;57543;45.442;9.212;2023-03-16T01:23:04;12.80;34.59
70170;DHT22;57543;45.442;9.212;2023-03-16T01:26:08;12.83;34.74
70170;DHT22;57543;45.442;9.212;2023-03-16T01:29:12;12.86;34.63
70170;DHT22;57543;45.442;9.212;2023-03-16T01:32:19;12.80;34.78
70170;DHT22;57543;45.442;9.212;2023-03-16T01:35:23;12.81;34.69
70170;DHT22;57543;45.442;9.212;2023-03-16T01:38:27;12.79;34.75
70170;DHT22;57543;45.442;9.212;2023-03-16T01:41:31;12.75;34.97
70170;DHT22;57543;45.442;9.212;2023-03-16T01:44:56;12.70;34.99
70170;DHT22;57543;45.442;9.212;2023-03-16T01:48:07;12.75;34.98
70170;DHT22;57543;45.442;9.212;2023-03-16T01:54:45;12.44;34.94
70170;DHT22;57543;45.442;9.212;2023-03-16T01:57:50;12.27;35.39
70170;DHT22;57543;45.442;9.212;2023-03-16T02:00:54;12.22;35.92
70170;DHT22;57543;45.442;9.212;2023-03-16T02:04:16;12.27;35.61
70170;DHT22;57543;45.442;9.212;2023-03-16T02:07:24;12.08;35.54
70170;DHT22;57543;45.442;9.212;2023-03-16T02:10:30;12.01;35.05
70170;DHT22;57543;45.442;9.212;2023-03-16T02:13:35;11.77;35.34
70170;DHT22;57543;45.442;9.212;2023-03-16T02:16:40;11.61;35.73
70170;DHT22;57543;45.442;9.212;2023-03-16T02:22:49;11.70;35.80
70170;DHT22;57543;45.442;9.212;2023-03-16T02:26:02;11.76;36.31
70170;DHT22;57543;45.442;9.212;2023-03-16T02:29:13;11.74;35.87
70170;DHT22;57543;45.442;9.212;2023-03-16T02:32:23;11.84;35.70
70170;DHT22;57543;45.442;9.212;2023-03-16T02:35:27;11.89;35.68
70170;DHT22;57543;45.442;9.212;2023-03-16T02:38:31;11.94;35.27
70170;DHT22;57543;45.442;9.212;2023-03-16T02:41:35;11.93;35.48
70170;DHT22;57543;45.442;9.212;2023-03-16T02:44:41;11.97;35.24
70170;DHT22;57543;45.442;9.212;2023-03-16T02:47:48;12.04;34.68
70170;DHT22;57543;45.442;9.212;2023-03-16T02:50:54;11.98;34.87
70170;DHT22;57543;45.442;9.212;2023-03-16T02:53:58;11.77;34.95
70170;DHT22;57543;45.442;9.212;2023-03-16T02:57:03;11.61;35.09
70170;DHT22;57543;45.442;9.212;2023-03-16T03:00:09;11.58;35.27
70170;DHT22;57543;45.442;9.212;2023-03-16T03:03:20;11.39;35.19
70170;DHT22;57543;45.442;9.212;2023-03-16T03:06:24;11.32;35.19
70170;DHT22;57543;45.442;9.212;2023-03-16T03:09:28;11.28;35.43
70170;DHT22;57543;45.442;9.212;2023-03-16T03:12:33;11.48;35.08
70170;DHT22;57543;45.442;9.212;2023-03-16T03:15:36;11.46;35.13
70170;DHT22;57543;45.442;9.212;2023-03-16T03:18:46;11.62;34.64
70170;DHT22;57543;45.442;9.212;2023-03-16T03:21:50;11.51;34.59
70170;DHT22;57543;45.442;9.212;2023-03-16T03:24:54;11.45;34.81
70170;DHT22;57543;45.442;9.212;2023-03-16T03:27:57;11.54;34.33
70170;DHT22;57543;45.442;9.212;2023-03-16T03:31:02;11.51;34.62
70170;DHT22;57543;45.442;9.212;2023-03-16T03:34:06;11.59;34.22
70170;DHT22;57543;45.442;9.212;2023-03-16T03:37:11;11.63;34.07
70170;DHT22;57543;45.442;9.212;2023-03-16T03:40:18;11.72;34.04
70170;DHT22;57543;45.442;9.212;2023-03-16T03:43:26;11.63;34.30
70170;DHT22;57543;45.442;9.212;2023-03-16T03:46:30;11.72;34.39
70170;DHT22;57543;45.442;9.212;2023-03-16T03:49:34;11.65;34.70
70170;DHT22;57543;45.442;9.212;2023-03-16T03:52:37;11.48;35.17
70170;DHT22;57543;45.442;9.212;2023-03-16T03:55:42;11.39;35.69
70170;DHT22;57543;45.442;9.212;2023-03-16T03:58:45;11.36;36.03
70170;DHT22;57543;45.442;9.212;2023-03-16T04:01:54;11.27;36.52
70170;DHT22;57543;45.442;9.212;2023-03-16T04:05:01;11.11;36.63
70170;DHT22;57543;45.442;9.212;2023-03-16T04:08:06;11.10;36.72
70170;DHT22;57543;45.442;9.212;2023-03-16T04:11:10;11.04;37.51
70170;DHT22;57543;45.442;9.212;2023-03-16T04:14:14;10.97;38.07
70170;DHT22;57543;45.442;9.212;2023-03-16T04:17:18;10.92;37.99
70170;DHT22;57543;45.442;9.212;2023-03-16T04:20:23;10.89;37.99
70170;DHT22;57543;45.442;9.212;2023-03-16T04:23:26;10.84;39.01
70170;DHT22;57543;45.442;9.212;2023-03-16T04:26:31;10.81;38.96
70170;DHT22;57543;45.442;9.212;2023-03-16T04:29:35;10.67;39.20
70170;DHT22;57543;45.442;9.212;2023-03-16T04:32:40;10.69;38.85
70170;DHT22;57543;45.442;9.212;2023-03-16T04:35:44;10.58;39.59
70170;DHT22;57543;45.442;9.212;2023-03-16T04:38:49;10.49;39.61
70170;DHT22;57543;45.442;9.212;2023-03-16T04:41:53;10.48;39.35
70170;DHT22;57543;45.442;9.212;2023-03-16T04:44:59;10.45;40.06
70170;DHT22;57543;45.442;9.212;2023-03-16T04:48:04;10.55;39.90
70170;DHT22;57543;45.442;9.212;2023-03-16T04:51:08;10.67;39.61
70170;DHT22;57543;45.442;9.212;2023-03-16T04:54:16;10.69;39.19
70170;DHT22;57543;45.442;9.212;2023-03-16T04:57:20;10.69;39.66
70170;DHT22;57543;45.442;9.212;2023-03-16T05:00:29;10.59;39.64
70170;DHT22;57543;45.442;9.212;2023-03-16T05:03:41;10.52;39.68
70170;DHT22;57543;45.442;9.212;2023-03-16T05:06:46;10.44;40.75
70170;DHT22;57543;45.442;9.212;2023-03-16T05:09:51;10.38;41.09
70170;DHT22;57543;45.442;9.212;2023-03-16T05:12:54;10.46;39.88
70170;DHT22;57543;45.442;9.212;2023-03-16T05:15:59;10.44;40.17
70170;DHT22;57543;45.442;9.212;2023-03-16T05:19:07;10.41;41.18
70170;DHT22;57543;45.442;9.212;2023-03-16T05:22:12;10.37;41.22
70170;DHT22;57543;45.442;9.212;2023-03-16T05:25:24;10.28;40.75
70170;DHT22;57543;45.442;9.212;2023-03-16T05:28:31;10.28;41.01
70170;DHT22;57543;45.442;9.212;2023-03-16T05:31:38;10.22;41.05
70170;DHT22;57543;45.442;9.212;2023-03-16T05:34:48;10.20;39.30
70170;DHT22;57543;45.442;9.212;2023-03-16T05:37:51;10.21;38.89
70170;DHT22;57543;45.442;9.212;2023-03-16T05:40:57;10.25;38.36
70170;DHT22;57543;45.442;9.212;2023-03-16T05:44:19;10.30;40.19
70170;DHT22;57543;45.442;9.212;2023-03-16T05:47:35;10.31;39.87
70170;DHT22;57543;45.442;9.212;2023-03-16T05:50:40;10.25;40.39
70170;DHT22;57543;45.442;9.212;2023-03-16T05:53:45;10.21;40.17
70170;DHT22;57543;45.442;9.212;2023-03-16T05:56:58;10.22;40.01
70170;DHT22;57543;45.442;9.212;2023-03-16T06:00:06;10.25;39.89
70170;DHT22;57543;45.442;9.212;2023-03-16T06:03:23;10.30;39.85
70170;DHT22;57543;45.442;9.212;2023-03-16T06:06:28;10.25;39.83
70170;DHT22;57543;45.442;9.212;2023-03-16T06:09:44;10.28;39.83
70170;DHT22;57543;45.442;9.212;2023-03-16T06:12:51;10.32;40.06
70170;DHT22;57543;45.442;9.212;2023-03-16T06:15:57;10.27;40.01
70170;DHT22;57543;45.442;9.212;2023-03-16T06:19:01;10.22;40.39
70170;DHT22;57543;45.442;9.212;2023-03-16T06:22:07;10.22;40.88
70170;DHT22;57543;45.442;9.212;2023-03-16T06:25:13;10.27;40.47
70170;DHT22;57543;45.442;9.212;2023-03-16T06:28:20;10.37;41.22
70170;DHT22;57543;45.442;9.212;2023-03-16T06:31:24;10.28;40.88
70170;DHT22;57543;45.442;9.212;2023-03-16T06:34:27;10.41;40.46
70170;DHT22;57543;45.442;9.212;2023-03-16T06:37:32;10.56;39.58
70170;DHT22;57543;45.442;9.212;2023-03-16T06:40:40;10.67;38.99
70170;DHT22;57543;45.442;9.212;2023-03-16T06:43:43;10.84;38.32
70170;DHT22;57543;45.442;9.212;2023-03-16T06:46:50;10.96;38.23
70170;DHT22;57543;45.442;9.212;2023-03-16T06:49:53;11.03;37.82
70170;DHT22;57543;45.442;9.212;2023-03-16T06:52:59;11.14;37.25
70170;DHT22;57543;45.442;9.212;2023-03-16T06:56:05;11.14;37.04
70170;DHT22;57543;45.442;9.212;2023-03-16T06:59:13;11.21;36.89
70170;DHT22;57543;45.442;9.212;2023-03-16T07:02:17;11.34;36.75
70170;DHT22;57543;45.442;9.212;2023-03-16T07:05:22;11.31;36.72
70170;DHT22;57543;45.442;9.212;2023-03-16T07:08:27;11.42;36.09
70170;DHT22;57543;45.442;9.212;2023-03-16T07:11:32;11.45;35.97
70170;DHT22;57543;45.442;9.212;2023-03-16T07:14:36;11.56;35.74
70170;DHT22;57543;45.442;9.212;2023-03-16T07:17:40;11.66;36.15
70170;DHT22;57543;45.442;9.212;2023-03-16T07:20:45;11.67;35.80
70170;DHT22;57543;45.442;9.212;2023-03-16T07:23:49;11.73;35.55
70170;DHT22;57543;45.442;9.212;2023-03-16T07:26:59;11.79;35.29
70170;DHT22;57543;45.442;9.212;2023-03-16T07:30:08;11.76;34.86
70170;DHT22;57543;45.442;9.212;2023-03-16T07:33:16;11.87;34.73
70170;DHT22;57543;45.442;9.212;2023-03-16T07:36:20;12.05;33.98
70170;DHT22;57543;45.442;9.212;2023-03-16T07:39:30;12.21;32.98
70170;DHT22;57543;45.442;9.212;2023-03-16T07:42:41;12.36;32.17
70170;DHT22;57543;45.442;9.212;2023-03-16T07:45:48;12.56;31.05
70170;DHT22;57543;45.442;9.212;2023-03-16T07:48:54;12.77;30.95
70170;DHT22;57543;45.442;9.212;2023-03-16T07:51:58;12.84;31.06
70170;DHT22;57543;45.442;9.212;2023-03-16T07:55:09;13.25;33.32
70170;DHT22;57543;45.442;9.212;2023-03-16T07:58:14;13.44;31.57
70170;DHT22;57543;45.442;9.212;2023-03-16T08:01:20;13.70;31.55
70170;DHT22;57543;45.442;9.212;2023-03-16T08:04:28;14.18;36.72
70170;DHT22;57543;45.442;9.212;2023-03-16T08:07:35;14.60;32.05
70170;DHT22;57543;45.442;9.212;2023-03-16T08:11:06;15.01;29.89
70170;DHT22;57543;45.442;9.212;2023-03-16T08:14:29;15.65;29.18
70170;DHT22;57543;45.442;9.212;2023-03-16T08:17:42;16.39;28.41
70170;DHT22;57543;45.442;9.212;2023-03-16T08:20:51;16.45;26.41
70170;DHT22;57543;45.442;9.212;2023-03-16T08:23:55;17.35;25.38
70170;DHT22;57543;45.442;9.212;2023-03-16T08:27:00;18.22;24.59
70170;DHT22;57543;45.442;9.212;2023-03-16T08:30:08;19.12;23.69
70170;DHT22;57543;45.442;9.212;2023-03-16T08:33:17;19.63;23.79
70170;DHT22;57543;45.442;9.212;2023-03-16T08:36:22;19.19;24.45
70170;DHT22;57543;45.442;9.212;2023-03-16T08:39:29;19.52;24.62
70170;DHT22;57543;45.442;9.212;2023-03-16T08:42:34;20.08;24.53
70170;DHT22;57543;45.442;9.212;2023-03-16T08:45:40;19.55;24.61
70170;DHT22;57543;45.442;9.212;2023-03-16T08:48:45;18.76;25.43
70170;DHT22;57543;45.442;9.212;2023-03-16T08:51:49;18.86;25.90
70170;DHT22;57543;45.442;9.212;2023-03-16T08:54:53;19.15;26.11
70170;DHT22;57543;45.442;9.212;2023-03-16T08:57:58;19.10;26.31
70170;DHT22;57543;45.442;9.212;2023-03-16T09:01:03;19.08;26.85
70170;DHT22;57543;45.442;9.212;2023-03-16T09:04:08;18.97;26.58
70170;DHT22;57543;45.442;9.212;2023-03-16T09:07:14;18.79;27.10
70170;DHT22;57543;45.442;9.212;2023-03-16T09:10:19;18.28;27.50
70170;DHT22;57543;45.442;9.212;2023-03-16T09:13:27;17.90;28.30
70170;DHT22;57543;45.442;9.212;2023-03-16T09:16:31;17.83;28.71
70170;DHT22;57543;45.442;9.212;2023-03-16T09:19:34;17.40;29.31
70170;DHT22;57543;45.442;9.212;2023-03-16T09:22:38;17.35;29.77
70170;DHT22;57543;45.442;9.212;2023-03-16T09:25:42;17.81;30.12
70170;DHT22;57543;45.442;9.212;2023-03-16T09:28:46;17.89;29.56
70170;DHT22;57543;45.442;9.212;2023-03-16T09:31:53;18.22;29.50
70170;DHT22;57543;45.442;9.212;2023-03-16T09:34:58;18.41;29.05
70170;DHT22;57543;45.442;9.212;2023-03-16T09:38:02;18.28;29.28
70170;DHT22;57543;45.442;9.212;2023-03-16T09:41:09;18.17;29.53
70170;DHT22;57543;45.442;9.212;2023-03-16T09:47:28;18.14;30.08
70170;DHT22;57543;45.442;9.212;2023-03-16T09:50:37;18.08;29.58
70170;DHT22;57543;45.442;9.212;2023-03-16T09:53:41;17.56;30.28
70170;DHT22;57543;45.442;9.212;2023-03-16T09:56:47;17.62;30.79
70170;DHT22;57543;45.442;9.212;2023-03-16T10:00:09;17.52;30.70
70170;DHT22;57543;45.442;9.212;2023-03-16T10:06:32;17.24;30.85
70170;DHT22;57543;45.442;9.212;2023-03-16T10:09:47;16.97;31.62
70170;DHT22;57543;45.442;9.212;2023-03-16T10:12:57;17.25;32.19
70170;DHT22;57543;45.442;9.212;2023-03-16T10:16:08;17.63;32.13
70170;DHT22;57543;45.442;9.212;2023-03-16T10:19:29;17.61;31.11
70170;DHT22;57543;45.442;9.212;2023-03-16T10:22:41;17.73;31.56
70170;DHT22;57543;45.442;9.212;2023-03-16T10:25:47;17.94;31.80
70170;DHT22;57543;45.442;9.212;2023-03-16T10:28:51;17.96;31.03
70170;DHT22;57543;45.442;9.212;2023-03-16T10:32:11;17.94;31.13
70170;DHT22;57543;45.442;9.212;2023-03-16T10:41:38;18.60;31.67
70170;DHT22;57543;45.442;9.212;2023-03-16T10:44:43;18.55;31.09
70170;DHT22;57543;45.442;9.212;2023-03-16T10:47:47;18.60;30.99
70170;DHT22;57543;45.442;9.212;2023-03-16T10:50:53;18.81;31.44
70170;DHT22;57543;45.442;9.212;2023-03-16T10:57:39;19.31;30.18
70170;DHT22;57543;45.442;9.212;2023-03-16T11:00:45;19.15;31.09
70170;DHT22;57543;45.442;9.212;2023-03-16T11:03:51;19.31;31.12
70170;DHT22;57543;45.442;9.212;2023-03-16T11:06:57;19.31;31.07
70170;DHT22;57543;45.442;9.212;2023-03-16T11:10:14;19.28;30.48
70170;DHT22;57543;45.442;9.212;2023-03-16T11:13:31;19.29;32.45
70170;DHT22;57543;45.442;9.212;2023-03-16T11:19:56;19.86;31.84
70170;DHT22;57543;45.442;9.212;2023-03-16T11:23:05;20.43;31.66
70170;DHT22;57543;45.442;9.212;2023-03-16T11:26:16;20.80;29.02
70170;DHT22;57543;45.442;9.212;2023-03-16T11:29:31;20.94;29.12
70170;DHT22;57543;45.442;9.212;2023-03-16T11:32:51;22.73;27.86
70170;DHT22;57543;45.442;9.212;2023-03-16T11:39:32;24.24;24.82
70170;DHT22;57543;45.442;9.212;2023-03-16T11:46:45;26.37;22.91
70170;DHT22;57543;45.442;9.212;2023-03-16T11:50:18;25.29;23.01
70170;DHT22;57543;45.442;9.212;2023-03-16T11:56:38;26.78;22.19
70170;DHT22;57543;45.442;9.212;2023-03-16T11:59:50;25.37;22.71
70170;DHT22;57543;45.442;9.212;2023-03-16T12:03:20;25.20;23.76
70170;DHT22;57543;45.442;9.212;2023-03-16T12:10:24;25.21;23.20
70170;DHT22;57543;45.442;9.212;2023-03-16T12:13:31;24.48;24.13
70170;DHT22;57543;45.442;9.212;2023-03-16T12:20:17;22.84;24.89
70170;DHT22;57543;45.442;9.212;2023-03-16T12:23:31;22.60;25.36
70170;DHT22;57543;45.442;9.212;2023-03-16T12:26:39;22.52;26.10
70170;DHT22;57543;45.442;9.212;2023-03-16T12:29:52;22.14;28.15
70170;DHT22;57543;45.442;9.212;2023-03-16T12:46:17;21.21;26.82
70170;DHT22;57543;45.442;9.212;2023-03-16T12:49:24;21.34;28.13
70170;DHT22;57543;45.442;9.212;2023-03-16T12:52:38;21.22;27.62
70170;DHT22;57543;45.442;9.212;2023-03-16T12:55:43;21.21;27.50
70170;DHT22;57543;45.442;9.212;2023-03-16T12:58:49;20.83;28.54
70170;DHT22;57543;45.442;9.212;2023-03-16T13:01:57;21.08;28.18
70170;DHT22;57543;45.442;9.212;2023-03-16T13:08:17;20.93;27.76
70170;DHT22;57543;45.442;9.212;2023-03-16T13:11:21;20.72;30.47
70170;DHT22;57543;45.442;9.212;2023-03-16T13:14:42;20.77;28.48
70170;DHT22;57543;45.442;9.212;2023-03-16T13:17:48;20.98;28.46
70170;DHT22;57543;45.442;9.212;2023-03-16T13:21:00;20.83;28.43
70170;DHT22;57543;45.442;9.212;2023-03-16T13:24:26;21.01;28.99
70170;DHT22;57543;45.442;9.212;2023-03-16T13:27:32;21.15;28.23
70170;DHT22;57543;45.442;9.212;2023-03-16T13:30:46;21.10;27.67
70170;DHT22;57543;45.442;9.212;2023-03-16T13:33:54;21.07;28.11
70170;DHT22;57543;45.442;9.212;2023-03-16T13:36:59;20.79;27.82
70170;DHT22;57543;45.442;9.212;2023-03-16T13:40:20;20.70;28.88
70170;DHT22;57543;45.442;9.212;2023-03-16T13:43:29;20.67;29.32
70170;DHT22;57543;45.442;9.212;2023-03-16T13:46:39;20.33;29.06
70170;DHT22;57543;45.442;9.212;2023-03-16T13:49:49;20.50;29.49
70170;DHT22;57543;45.442;9.212;2023-03-16T13:52:57;20.69;28.40
70170;DHT22;57543;45.442;9.212;2023-03-16T13:56:02;20.87;28.07
70170;DHT22;57543;45.442;9.212;2023-03-16T13:59:07;20.98;27.67
70170;DHT22;57543;45.442;9.212;2023-03-16T14:02:17;21.27;28.01
70170;DHT22;57543;45.442;9.212;2023-03-16T14:08:25;21.17;27.99
70170;DHT22;57543;45.442;9.212;2023-03-16T14:11:29;21.34;27.82
70170;DHT22;57543;45.442;9.212;2023-03-16T14:14:38;20.70;28.37
70170;DHT22;57543;45.442;9.212;2023-03-16T14:17:45;20.84;28.33
70170;DHT22;57543;45.442;9.212;2023-03-16T14:20:51;20.55;28.68
70170;DHT22;57543;45.442;9.212;2023-03-16T14:23:59;20.10;30.21
70170;DHT22;57543;45.442;9.212;2023-03-16T14:30:54;20.26;28.86
70170;DHT22;57543;45.442;9.212;2023-03-16T14:34:06;20.48;29.11
70170;DHT22;57543;45.442;9.212;2023-03-16T14:37:21;20.26;29.80
70170;DHT22;57543;45.442;9.212;2023-03-16T14:40:28;20.46;28.90
70170;DHT22;57543;45.442;9.212;2023-03-16T14:43:35;20.33;29.35
70170;DHT22;57543;45.442;9.212;2023-03-16T14:46:41;20.62;29.14
70170;DHT22;57543;45.442;9.212;2023-03-16T14:49:44;20.72;28.49
70170;DHT22;57543;45.442;9.212;2023-03-16T14:52:49;20.36;28.74
70170;DHT22;57543;45.442;9.212;2023-03-16T14:55:54;20.35;29.20
70170;DHT22;57543;45.442;9.212;2023-03-16T14:58:59;20.42;28.42
70170;DHT22;57543;45.442;9.212;2023-03-16T15:02:08;20.57;28.10
70170;DHT22;57543;45.442;9.212;2023-03-16T15:05:34;20.57;28.52
70170;DHT22;57543;45.442;9.212;2023-03-16T15:08:42;20.69;27.90
70170;DHT22;57543;45.442;9.212;2023-03-16T15:11:47;20.66;27.37
70170;DHT22;57543;45.442;9.212;2023-03-16T15:14:51;20.77;27.61
70170;DHT22;57543;45.442;9.212;2023-03-16T15:18:13;20.65;27.74
70170;DHT22;57543;45.442;9.212;2023-03-16T15:21:22;20.55;27.86
70170;DHT22;57543;45.442;9.212;2023-03-16T15:24:27;20.72;27.77
70170;DHT22;57543;45.442;9.212;2023-03-16T15:27:34;20.81;27.77
70170;DHT22;57543;45.442;9.212;2023-03-16T15:30:38;20.77;27.75
70170;DHT22;57543;45.442;9.212;2023-03-16T15:33:43;20.81;27.82
70170;DHT22;57543;45.442;9.212;2023-03-16T15:36:48;20.84;27.73
70170;DHT22;57543;45.442;9.212;2023-03-16T15:39:51;20.70;28.08
70170;DHT22;57543;45.442;9.212;2023-03-16T15:42:55;20.45;27.91
70170;DHT22;57543;45.442;9.212;2023-03-16T15:46:00;20.24;28.75
70170;DHT22;57543;45.442;9.212;2023-03-16T15:49:04;20.15;29.04
70170;DHT22;57543;45.442;9.212;2023-03-16T15:52:21;20.24;28.31
70170;DHT22;57543;45.442;9.212;2023-03-16T15:55:33;20.33;28.32
70170;DHT22;57543;45.442;9.212;2023-03-16T15:58:40;20.04;28.41
70170;DHT22;57543;45.442;9.212;2023-03-16T16:01:46;19.94;28.27
70170;DHT22;57543;45.442;9.212;2023-03-16T16:04:50;19.71;27.92
70170;DHT22;57543;45.442;9.212;2023-03-16T16:07:53;19.43;27.61
70170;DHT22;57543;45.442;9.212;2023-03-16T16:10:57;19.38;29.21
70170;DHT22;57543;45.442;9.212;2023-03-16T16:14:01;19.48;29.59
70170;DHT22;57543;45.442;9.212;2023-03-16T16:17:13;19.34;29.64
70170;DHT22;57543;45.442;9.212;2023-03-16T16:20:29;19.24;29.93
70170;DHT22;57543;45.442;9.212;2023-03-16T16:23:34;19.03;30.23
70170;DHT22;57543;45.442;9.212;2023-03-16T16:26:41;18.96;29.88
70170;DHT22;57543;45.442;9.212;2023-03-16T16:29:48;18.81;30.25
70170;DHT22;57543;45.442;9.212;2023-03-16T16:32:52;18.62;30.81
70170;DHT22;57543;45.442;9.212;2023-03-16T16:35:58;18.56;30.99
70170;DHT22;57543;45.442;9.212;2023-03-16T16:39:02;18.52;31.41
70170;DHT22;57543;45.442;9.212;2023-03-16T16:42:14;18.45;31.63
70170;DHT22;57543;45.442;9.212;2023-03-16T16:45:23;18.22;31.97
70170;DHT22;57543;45.442;9.212;2023-03-16T16:51:36;17.86;32.61
70170;DHT22;57543;45.442;9.212;2023-03-16T16:54:40;17.84;32.69
70170;DHT22;57543;45.442;9.212;2023-03-16T16:57:44;17.81;32.87
70170;DHT22;57543;45.442;9.212;2023-03-16T17:00:56;17.69;32.79
70170;DHT22;57543;45.442;9.212;2023-03-16T17:04:01;17.53;32.90
70170;DHT22;57543;45.442;9.212;2023-03-16T17:07:05;17.43;33.34
70170;DHT22;57543;45.442;9.212;2023-03-16T17:10:15;17.14;33.51
70170;DHT22;57543;45.442;9.212;2023-03-16T17:13:27;17.04;33.77
70170;DHT22;57543;45.442;9.212;2023-03-16T17:16:34;17.14;33.67
70170;DHT22;57543;45.442;9.212;2023-03-16T17:19:39;17.19;34.88
70170;DHT22;57543;45.442;9.212;2023-03-16T17:22:45;17.17;36.05
70170;DHT22;57543;45.442;9.212;2023-03-16T17:25:48;17.08;34.10
70170;DHT22;57543;45.442;9.212;2023-03-16T17:28:56;17.04;34.30
70170;DHT22;57543;45.442;9.212;2023-03-16T17:32:03;16.90;34.27
70170;DHT22;57543;45.442;9.212;2023-03-16T17:35:13;16.76;34.06
70170;DHT22;57543;45.442;9.212;2023-03-16T17:38:19;16.60;34.32
70170;DHT22;57543;45.442;9.212;2023-03-16T17:41:26;16.56;34.15
70170;DHT22;57543;45.442;9.212;2023-03-16T17:44:32;16.32;34.32
70170;DHT22;57543;45.442;9.212;2023-03-16T17:47:36;16.28;34.33
70170;DHT22;57543;45.442;9.212;2023-03-16T17:50:46;16.11;34.23
70170;DHT22;57543;45.442;9.212;2023-03-16T17:53:50;16.04;34.39
70170;DHT22;57543;45.442;9.212;2023-03-16T17:56:54;16.10;34.23
70170;DHT22;57543;45.442;9.212;2023-03-16T17:59:58;15.96;34.32
70170;DHT22;57543;45.442;9.212;2023-03-16T18:03:09;15.94;34.36
70170;DHT22;57543;45.442;9.212;2023-03-16T18:06:17;15.79;34.18
70170;DHT22;57543;45.442;9.212;2023-03-16T18:09:22;15.82;34.38
70170;DHT22;57543;45.442;9.212;2023-03-16T18:12:26;15.76;34.61
70170;DHT22;57543;45.442;9.212;2023-03-16T18:15:32;15.79;34.70
70170;DHT22;57543;45.442;9.212;2023-03-16T18:18:38;15.71;34.96
70170;DHT22;57543;45.442;9.212;2023-03-16T18:21:45;15.66;35.06
70170;DHT22;57543;45.442;9.212;2023-03-16T18:24:50;15.70;35.22
70170;DHT22;57543;45.442;9.212;2023-03-16T18:27:54;15.60;35.30
70170;DHT22;57543;45.442;9.212;2023-03-16T18:30:59;15.60;34.93
70170;DHT22;57543;45.442;9.212;2023-03-16T18:34:05;15.55;35.08
70170;DHT22;57543;45.442;9.212;2023-03-16T18:37:16;15.49;35.12
70170;DHT22;57543;45.442;9.212;2023-03-16T18:40:22;15.39;34.90
70170;DHT22;57543;45.442;9.212;2023-03-16T18:43:30;15.41;35.22
70170;DHT22;57543;45.442;9.212;2023-03-16T18:46:35;15.48;35.48
70170;DHT22;57543;45.442;9.212;2023-03-16T18:49:39;15.38;35.39
70170;DHT22;57543;45.442;9.212;2023-03-16T18:52:43;15.43;35.81
70170;DHT22;57543;45.442;9.212;2023-03-16T18:55:48;15.43;35.56
70170;DHT22;57543;45.442;9.212;2023-03-16T18:58:53;15.28;35.79
70170;DHT22;57543;45.442;9.212;2023-03-16T19:01:58;15.24;35.98
70170;DHT22;57543;45.442;9.212;2023-03-16T19:05:04;15.24;35.61
70170;DHT22;57543;45.442;9.212;2023-03-16T19:08:11;15.17;35.80
70170;DHT22;57543;45.442;9.212;2023-03-16T19:11:15;15.08;36.16
70170;DHT22;57543;45.442;9.212;2023-03-16T19:14:24;15.04;35.65
70170;DHT22;57543;45.442;9.212;2023-03-16T19:17:29;15.05;35.80
70170;DHT22;57543;45.442;9.212;2023-03-16T19:20:33;14.96;36.19
70170;DHT22;57543;45.442;9.212;2023-03-16T19:23:37;15.01;35.93
70170;DHT22;57543;45.442;9.212;2023-03-16T19:26:41;14.97;35.96
70170;DHT22;57543;45.442;9.212;2023-03-16T19:29:45;15.00;35.83
70170;DHT22;57543;45.442;9.212;2023-03-16T19:32:49;14.94;35.85
70170;DHT22;57543;45.442;9.212;2023-03-16T19:35:54;14.87;36.33
70170;DHT22;57543;45.442;9.212;2023-03-16T19:38:58;14.87;36.17
70170;DHT22;57543;45.442;9.212;2023-03-16T19:42:02;14.84;36.06
70170;DHT22;57543;45.442;9.212;2023-03-16T19:45:14;14.73;36.41
70170;DHT22;57543;45.442;9.212;2023-03-16T19:48:21;14.73;36.49
70170;DHT22;57543;45.442;9.212;2023-03-16T19:51:28;14.63;36.42
70170;DHT22;57543;45.442;9.212;2023-03-16T19:54:33;14.68;36.50
70170;DHT22;57543;45.442;9.212;2023-03-16T19:57:37;14.49;36.59
70170;DHT22;57543;45.442;9.212;2023-03-16T20:00:41;14.34;36.99
70170;DHT22;57543;45.442;9.212;2023-03-16T20:03:47;14.26;37.09
70170;DHT22;57543;45.442;9.212;2023-03-16T20:06:51;14.42;37.08
70170;DHT22;57543;45.442;9.212;2023-03-16T20:09:56;14.43;37.07
70170;DHT22;57543;45.442;9.212;2023-03-16T20:13:00;14.41;37.15
70170;DHT22;57543;45.442;9.212;2023-03-16T20:16:04;14.60;37.28
70170;DHT22;57543;45.442;9.212;2023-03-16T20:19:15;14.45;37.20
70170;DHT22;57543;45.442;9.212;2023-03-16T20:22:22;14.35;37.32
70170;DHT22;57543;45.442;9.212;2023-03-16T20:25:29;14.21;37.63
70170;DHT22;57543;45.442;9.212;2023-03-16T20:28:35;13.94;38.16
70170;DHT22;57543;45.442;9.212;2023-03-16T20:31:39;13.98;38.26
70170;DHT22;57543;45.442;9.212;2023-03-16T20:34:43;13.83;38.63
70170;DHT22;57543;45.442;9.212;2023-03-16T20:37:48;13.61;39.11
70170;DHT22;57543;45.442;9.212;2023-03-16T20:40:53;13.49;39.50
70170;DHT22;57543;45.442;9.212;2023-03-16T20:43:58;13.35;39.82
70170;DHT22;57543;45.442;9.212;2023-03-16T20:47:03;13.21;40.23
70170;DHT22;57543;45.442;9.212;2023-03-16T20:50:27;13.15;40.58
70170;DHT22;57543;45.442;9.212;2023-03-16T20:53:31;13.29;40.57